createdAt,value
2023-02-13T00:00:52.550Z,50.877144
2023-02-13T00:01:52.557Z,50.877148
2023-02-13T00:02:52.554Z,50.877148
2023-02-13T00:03:52.564Z,50.877121
2023-02-13T00:04:52.523Z,50.877129
2023-02-13T00:05:52.491Z,50.877110
2023-02-13T00:06:52.486Z,50.877056
2023-02-13T00:07:52.485Z,50.877083
2023-02-13T00:08:52.470Z,50.877144
2023-02-13T00:09:52.457Z,50.877064
2023-02-13T00:10:52.471Z,50.877132
2023-02-13T00:11:52.449Z,50.877151
2023-02-13T00:12:52.421Z,50.877022
2023-02-13T00:13:52.435Z,50.877079
2023-02-13T00:14:52.409Z,50.877136
2023-02-13T00:15:52.444Z,50.877171
2023-02-13T00:16:52.404Z,50.877171
2023-02-13T00:17:52.388Z,50.877136
2023-02-13T00:18:52.399Z,50.877129
2023-02-13T00:19:52.383Z,50.877163
2023-02-13T00:20:52.345Z,50.877163
2023-02-13T00:21:52.348Z,50.877094
2023-02-13T00:22:52.335Z,50.877155
2023-02-13T00:23:52.360Z,50.877197
2023-02-13T00:24:52.321Z,50.877163
2023-02-13T00:25:52.329Z,50.877163
2023-02-13T00:26:52.310Z,50.877171
2023-02-13T00:27:52.302Z,50.877144
2023-02-13T00:28:52.267Z,50.877171
2023-02-13T00:29:52.273Z,50.877209
2023-02-13T00:30:52.355Z,50.877193
2023-02-13T00:31:52.364Z,50.877136
2023-02-13T00:32:52.250Z,50.877167
2023-02-13T00:33:52.259Z,50.877174
2023-02-13T00:34:52.226Z,50.877167
2023-02-13T00:35:52.209Z,50.877144
2023-02-13T00:36:52.205Z,50.877163
2023-02-13T00:37:52.220Z,50.877201
2023-02-13T00:38:52.186Z,50.877171
2023-02-13T00:39:52.160Z,50.877155
2023-02-13T00:40:52.195Z,50.877110
2023-02-13T00:41:52.148Z,50.877201
2023-02-13T00:42:52.153Z,50.877243
2023-02-13T00:43:52.191Z,50.877117
2023-02-13T00:44:52.128Z,50.877232
2023-02-13T00:45:52.119Z,50.877235
2023-02-13T00:46:52.155Z,50.877140
2023-02-13T00:47:52.084Z,50.877201
2023-02-13T00:48:52.075Z,50.877243
2023-02-13T00:49:52.081Z,50.877186
2023-02-13T00:50:52.054Z,50.877213
2023-02-13T00:51:52.062Z,50.877159
2023-02-13T00:52:52.063Z,50.877117
2023-02-13T00:53:52.031Z,50.877186
2023-02-13T00:54:52.033Z,50.877220
2023-02-13T00:55:52.049Z,50.877151
2023-02-13T00:56:52.020Z,50.877125
2023-02-13T00:57:51.996Z,50.877151
2023-02-13T00:58:52.013Z,50.877144
2023-02-13T00:59:51.998Z,50.877151
2023-02-13T01:00:51.966Z,50.877190
2023-02-13T01:01:51.959Z,50.877190
2023-02-13T01:02:51.963Z,50.877174
2023-02-13T01:03:51.991Z,50.877087
2023-02-13T01:04:51.929Z,50.877079
2023-02-13T01:05:51.968Z,50.877125
2023-02-13T01:06:51.916Z,50.877167
2023-02-13T01:07:51.892Z,50.877220
2023-02-13T01:08:51.931Z,50.877235
2023-02-13T01:09:51.891Z,50.877216
2023-02-13T01:10:51.880Z,50.877190
2023-02-13T01:11:51.882Z,50.877205
2023-02-13T01:12:51.861Z,50.877197
2023-02-13T01:13:51.881Z,50.877182
2023-02-13T01:14:51.878Z,50.877205
2023-02-13T01:15:51.842Z,50.877232
2023-02-13T01:16:51.794Z,50.877151
2023-02-13T01:17:51.834Z,50.877182
2023-02-13T01:18:51.796Z,50.877163
2023-02-13T01:19:51.805Z,50.877155
2023-02-13T01:20:51.767Z,50.877148
2023-02-13T01:21:51.826Z,50.877178
2023-02-13T01:22:51.792Z,50.877148
2023-02-13T01:23:51.765Z,50.877167
2023-02-13T01:24:51.733Z,50.877144
2023-02-13T01:25:51.784Z,50.877151
2023-02-13T01:26:51.733Z,50.877132
2023-02-13T01:27:51.733Z,50.877151
2023-02-13T01:28:51.685Z,50.877163
2023-02-13T01:29:51.692Z,50.877155
2023-02-13T01:30:51.721Z,50.877178
2023-02-13T01:31:51.771Z,50.877121
2023-02-13T01:32:51.653Z,50.877083
2023-02-13T01:33:51.638Z,50.877117
2023-02-13T01:34:51.635Z,50.877132
2023-02-13T01:35:51.645Z,50.877155
2023-02-13T01:36:51.616Z,50.877167
2023-02-13T01:37:51.636Z,50.877167
2023-02-13T01:38:51.613Z,50.877117
2023-02-13T01:39:51.613Z,50.877094
2023-02-13T01:40:51.636Z,50.877178
2023-02-13T01:41:51.546Z,50.877174
2023-02-13T01:42:51.572Z,50.877117
2023-02-13T01:43:51.571Z,50.877155
2023-02-13T01:44:51.549Z,50.877174
2023-02-13T01:45:51.545Z,50.877193
2023-02-13T01:46:51.597Z,50.877224
2023-02-13T01:47:51.530Z,50.877155
2023-02-13T01:48:51.510Z,50.877151
2023-02-13T01:49:51.488Z,50.877209
2023-02-13T01:50:51.485Z,50.877182
2023-02-13T01:51:51.501Z,50.877136
2023-02-13T01:52:51.459Z,50.877171
2023-02-13T01:53:51.449Z,50.877213
2023-02-13T01:54:51.480Z,50.877193
2023-02-13T01:55:51.461Z,50.877232
2023-02-13T01:56:51.463Z,50.877174
2023-02-13T01:57:51.432Z,50.877178
2023-02-13T01:58:51.396Z,50.877171
2023-02-13T01:59:51.387Z,50.877232
2023-02-13T02:00:51.416Z,50.877216
2023-02-13T02:01:52.518Z,50.877129
2023-02-13T02:02:51.458Z,50.877144
2023-02-13T02:03:51.355Z,50.877148
2023-02-13T02:04:51.354Z,50.877113
2023-02-13T02:05:51.342Z,50.877018
2023-02-13T02:06:51.377Z,50.877075
2023-02-13T02:07:51.340Z,50.877075
2023-02-13T02:08:51.299Z,50.877148
2023-02-13T02:09:51.318Z,50.877216
2023-02-13T02:10:51.334Z,50.877171
2023-02-13T02:11:51.285Z,50.877151
2023-02-13T02:12:51.293Z,50.877163
2023-02-13T02:13:51.261Z,50.877102
2023-02-13T02:14:51.280Z,50.877110
2023-02-13T02:15:51.295Z,50.877155
2023-02-13T02:16:51.243Z,50.877190
2023-02-13T02:17:51.256Z,50.877220
2023-02-13T02:18:51.222Z,50.877213
2023-02-13T02:19:51.202Z,50.877213
2023-02-13T02:20:51.238Z,50.877209
2023-02-13T02:21:51.223Z,50.877197
2023-02-13T02:22:51.175Z,50.877186
2023-02-13T02:23:51.183Z,50.877201
2023-02-13T02:24:51.154Z,50.877220
2023-02-13T02:25:51.161Z,50.877209
2023-02-13T02:26:51.177Z,50.877201
2023-02-13T02:27:51.144Z,50.877205
2023-02-13T02:28:51.125Z,50.877220
2023-02-13T02:29:51.120Z,50.877213
2023-02-13T02:30:51.188Z,50.877239
2023-02-13T02:31:51.109Z,50.877239
2023-02-13T02:32:51.109Z,50.877201
2023-02-13T02:33:51.104Z,50.877216
2023-02-13T02:34:51.071Z,50.877232
2023-02-13T02:35:51.078Z,50.877209
2023-02-13T02:36:51.037Z,50.877193
2023-02-13T02:37:51.052Z,50.877197
2023-02-13T02:38:51.027Z,50.877201
2023-02-13T02:39:51.032Z,50.877224
2023-02-13T02:40:51.001Z,50.877220
2023-02-13T02:41:50.995Z,50.877197
2023-02-13T02:42:51.006Z,50.877201
2023-02-13T02:43:50.968Z,50.877201
2023-02-13T02:44:50.971Z,50.877197
2023-02-13T02:45:51.086Z,50.877190
2023-02-13T02:46:50.995Z,50.877193
2023-02-13T02:47:50.943Z,50.877178
2023-02-13T02:48:50.935Z,50.877186
2023-02-13T02:49:50.956Z,50.877182
2023-02-13T02:50:50.931Z,50.877197
2023-02-13T02:51:50.983Z,50.877182
2023-02-13T02:52:50.904Z,50.877201
2023-02-13T02:53:50.884Z,50.877205
2023-02-13T02:54:50.892Z,50.877224
2023-02-13T02:55:50.869Z,50.877216
2023-02-13T02:56:50.885Z,50.877213
2023-02-13T02:57:50.840Z,50.877205
2023-02-13T02:58:50.865Z,50.877213
2023-02-13T02:59:50.846Z,50.877216
2023-02-13T03:00:50.834Z,50.877190
2023-02-13T03:01:50.788Z,50.877193
2023-02-13T03:02:50.828Z,50.877205
2023-02-13T03:03:50.848Z,50.877197
2023-02-13T03:04:50.771Z,50.877193
2023-02-13T03:05:50.759Z,50.877193
2023-02-13T03:06:50.763Z,50.877193
2023-02-13T03:07:50.736Z,50.877178
2023-02-13T03:08:50.733Z,50.877171
2023-02-13T03:09:50.748Z,50.877190
2023-02-13T03:10:50.727Z,50.877209
2023-02-13T03:11:50.701Z,50.877216
2023-02-13T03:12:50.746Z,50.877201
2023-02-13T03:13:50.679Z,50.877197
2023-02-13T03:14:50.668Z,50.877197
2023-02-13T03:15:50.686Z,50.877205
2023-02-13T03:16:50.650Z,50.877167
2023-02-13T03:17:50.658Z,50.877201
2023-02-13T03:18:50.644Z,50.877190
2023-02-13T03:19:50.645Z,50.877182
2023-02-13T03:20:50.612Z,50.877190
2023-02-13T03:21:50.614Z,50.877213
2023-02-13T03:22:50.614Z,50.877205
2023-02-13T03:23:50.593Z,50.877201
2023-02-13T03:24:50.603Z,50.877182
2023-02-13T03:25:50.588Z,50.877193
2023-02-13T03:26:50.840Z,50.877197
2023-02-13T03:27:50.562Z,50.877216
2023-02-13T03:28:50.538Z,50.877216
2023-02-13T03:29:50.534Z,50.877228
2023-02-13T03:30:50.566Z,50.877232
2023-02-13T03:31:50.611Z,50.877209
2023-02-13T03:32:50.502Z,50.877186
2023-02-13T03:33:50.515Z,50.877205
2023-02-13T03:34:50.481Z,50.877232
2023-02-13T03:36:16.430Z,50.877220
2023-02-13T03:36:50.456Z,50.877224
2023-02-13T03:37:50.458Z,50.877216
2023-02-13T03:38:50.469Z,50.877232
2023-02-13T03:39:50.431Z,50.877220
2023-02-13T03:40:50.442Z,50.877239
2023-02-13T03:41:50.409Z,50.877216
2023-02-13T03:42:50.428Z,50.877209
2023-02-13T03:43:50.404Z,50.877232
2023-02-13T03:44:50.399Z,50.877216
2023-02-13T03:45:50.452Z,50.877213
2023-02-13T03:46:50.392Z,50.877197
2023-02-13T03:47:50.358Z,50.877197
2023-02-13T03:48:50.356Z,50.877247
2023-02-13T03:49:50.374Z,50.877258
2023-02-13T03:50:50.342Z,50.877239
2023-02-13T03:51:50.315Z,50.877277
2023-02-13T03:52:50.322Z,50.877335
2023-02-13T03:53:50.306Z,50.877285
2023-02-13T03:54:50.284Z,50.877239
2023-02-13T03:55:50.315Z,50.877228
2023-02-13T03:56:50.302Z,50.877277
2023-02-13T03:57:50.259Z,50.877285
2023-02-13T03:58:50.272Z,50.877281
2023-02-13T03:59:50.271Z,50.877274
2023-02-13T04:00:50.314Z,50.877296
2023-02-13T04:01:50.285Z,50.877350
2023-02-13T04:02:50.212Z,50.877186
2023-02-13T04:03:50.232Z,50.877235
2023-02-13T04:04:50.191Z,50.877220
2023-02-13T04:05:50.227Z,50.877216
2023-02-13T04:06:50.197Z,50.877266
2023-02-13T04:07:50.160Z,50.877209
2023-02-13T04:08:50.151Z,50.877235
2023-02-13T04:09:50.163Z,50.877262
2023-02-13T04:10:50.149Z,50.877247
2023-02-13T04:11:50.149Z,50.877243
2023-02-13T04:12:50.117Z,50.877285
2023-02-13T04:13:50.105Z,50.877193
2023-02-13T04:14:50.152Z,50.877182
2023-02-13T04:15:50.088Z,50.877148
2023-02-13T04:16:50.183Z,50.877232
2023-02-13T04:17:50.119Z,50.877251
2023-02-13T04:18:50.078Z,50.877228
2023-02-13T04:19:50.051Z,50.877228
2023-02-13T04:20:50.035Z,50.877239
2023-02-13T04:21:50.059Z,50.877209
2023-02-13T04:22:50.029Z,50.877197
2023-02-13T04:23:50.035Z,50.877205
2023-02-13T04:24:50.001Z,50.877193
2023-02-13T04:25:50.999Z,50.877190
2023-02-13T04:26:49.984Z,50.877197
2023-02-13T04:27:49.979Z,50.877151
2023-02-13T04:28:49.992Z,50.877136
2023-02-13T04:29:49.965Z,50.877167
2023-02-13T04:30:50.125Z,50.877209
2023-02-13T04:31:50.065Z,50.877121
2023-02-13T04:32:49.935Z,50.877159
2023-02-13T04:33:49.932Z,50.877209
2023-02-13T04:34:49.907Z,50.877155
2023-02-13T04:35:49.898Z,50.877178
2023-02-13T04:36:49.871Z,50.877213
2023-02-13T04:37:49.867Z,50.877243
2023-02-13T04:38:49.884Z,50.877216
2023-02-13T04:39:49.851Z,50.877201
2023-02-13T04:40:49.850Z,50.877266
2023-02-13T04:41:49.823Z,50.877243
2023-02-13T04:42:49.841Z,50.877243
2023-02-13T04:43:49.801Z,50.877209
2023-02-13T04:44:49.822Z,50.877182
2023-02-13T04:45:49.836Z,50.877201
2023-02-13T04:46:49.835Z,50.877258
2023-02-13T04:47:49.778Z,50.877216
2023-02-13T04:48:49.779Z,50.877171
2023-02-13T04:49:49.774Z,50.877174
2023-02-13T04:50:49.753Z,50.877262
2023-02-13T04:51:49.753Z,50.877220
2023-02-13T04:52:49.733Z,50.877140
2023-02-13T04:53:49.751Z,50.877178
2023-02-13T04:54:49.708Z,50.877247
2023-02-13T04:55:49.718Z,50.877186
2023-02-13T04:56:49.747Z,50.877197
2023-02-13T04:57:49.691Z,50.877159
2023-02-13T04:58:49.697Z,50.877186
2023-02-13T04:59:49.698Z,50.877121
2023-02-13T05:00:49.683Z,50.877167
2023-02-13T05:01:49.682Z,50.877136
2023-02-13T05:02:49.670Z,50.877144
2023-02-13T05:03:49.639Z,50.877148
2023-02-13T05:04:49.695Z,50.877132
2023-02-13T05:05:49.632Z,50.877144
2023-02-13T05:06:49.662Z,50.877151
2023-02-13T05:07:49.593Z,50.877178
2023-02-13T05:08:49.580Z,50.877197
2023-02-13T05:09:49.586Z,50.877174
2023-02-13T05:10:49.637Z,50.877182
2023-02-13T05:11:49.548Z,50.877136
2023-02-13T05:12:49.543Z,50.877136
2023-02-13T05:13:49.545Z,50.877144
2023-02-13T05:14:49.557Z,50.877167
2023-02-13T05:15:49.572Z,50.877174
2023-02-13T05:16:49.523Z,50.877151
2023-02-13T05:17:49.484Z,50.877182
2023-02-13T05:18:49.477Z,50.877167
2023-02-13T05:19:49.505Z,50.877186
2023-02-13T05:20:49.468Z,50.877159
2023-02-13T05:21:49.457Z,50.877190
2023-02-13T05:22:49.451Z,50.877174
2023-02-13T05:23:49.455Z,50.877121
2023-02-13T05:24:49.419Z,50.877094
2023-02-13T05:25:49.476Z,50.877151
2023-02-13T05:26:49.400Z,50.877144
2023-02-13T05:27:49.384Z,50.877148
2023-02-13T05:28:49.380Z,50.877159
2023-02-13T05:29:49.376Z,50.877186
2023-02-13T05:30:49.430Z,50.877159
2023-02-13T05:31:49.502Z,50.877140
2023-02-13T05:32:49.348Z,50.877136
2023-02-13T05:33:49.338Z,50.877148
2023-02-13T05:34:49.408Z,50.877163
2023-02-13T05:35:49.332Z,50.877174
2023-02-13T05:36:49.318Z,50.877159
2023-02-13T05:37:49.326Z,50.877163
2023-02-13T05:38:49.292Z,50.877220
2023-02-13T05:39:49.305Z,50.877171
2023-02-13T05:40:49.294Z,50.877186
2023-02-13T05:41:49.269Z,50.877171
2023-02-13T05:42:49.250Z,50.877159
2023-02-13T05:43:49.282Z,50.877171
2023-02-13T05:44:49.250Z,50.877167
2023-02-13T05:45:49.237Z,50.877213
2023-02-13T05:46:49.225Z,50.877110
2023-02-13T05:47:49.200Z,50.877129
2023-02-13T05:48:49.187Z,50.877186
2023-02-13T05:49:49.210Z,50.877224
2023-02-13T05:50:49.204Z,50.877186
2023-02-13T05:51:49.177Z,50.877182
2023-02-13T05:52:49.175Z,50.877224
2023-02-13T05:53:49.159Z,50.877159
2023-02-13T05:54:49.178Z,50.877155
2023-02-13T05:55:49.136Z,50.877205
2023-02-13T05:56:49.120Z,50.877171
2023-02-13T05:57:49.147Z,50.877190
2023-02-13T05:58:49.106Z,50.877113
2023-02-13T05:59:49.095Z,50.877102
2023-02-13T06:00:49.093Z,50.877197
2023-02-13T06:01:49.085Z,50.877129
2023-02-13T06:02:49.131Z,50.877117
2023-02-13T06:03:49.081Z,50.877148
2023-02-13T06:04:49.061Z,50.877193
2023-02-13T06:05:49.029Z,50.877167
2023-02-13T06:06:49.061Z,50.877186
2023-02-13T06:07:49.003Z,50.877197
2023-02-13T06:08:49.015Z,50.877201
2023-02-13T06:09:49.007Z,50.877209
2023-02-13T06:10:49.017Z,50.877216
2023-02-13T06:11:48.969Z,50.877205
2023-02-13T06:12:48.968Z,50.877167
2023-02-13T06:13:48.959Z,50.877186
2023-02-13T06:14:48.970Z,50.877197
2023-02-13T06:15:48.971Z,50.877205
2023-02-13T06:16:48.923Z,50.877209
2023-02-13T06:17:48.958Z,50.877174
2023-02-13T06:18:48.914Z,50.877174
2023-02-13T06:19:48.903Z,50.877171
2023-02-13T06:20:48.937Z,50.877171
2023-02-13T06:21:48.893Z,50.877144
2023-02-13T06:22:48.854Z,50.877182
2023-02-13T06:23:48.856Z,50.877182
2023-02-13T06:24:48.881Z,50.877193
2023-02-13T06:25:48.873Z,50.877190
2023-02-13T06:26:48.832Z,50.877228
2023-02-13T06:27:48.846Z,50.877232
2023-02-13T06:28:48.838Z,50.877216
2023-02-13T06:29:48.799Z,50.877228
2023-02-13T06:30:48.832Z,50.877213
2023-02-13T06:31:48.818Z,50.877254
2023-02-13T06:32:48.782Z,50.877213
2023-02-13T06:33:48.804Z,50.877213
2023-02-13T06:34:48.755Z,50.877243
2023-02-13T06:35:48.748Z,50.877228
2023-02-13T06:36:48.736Z,50.877411
2023-02-13T06:37:48.784Z,50.877449
2023-02-13T06:38:48.716Z,50.877285
2023-02-13T06:39:48.700Z,50.877110
2023-02-13T06:40:48.722Z,50.877277
2023-02-13T06:41:49.685Z,50.877319
2023-02-13T06:42:48.698Z,50.877171
2023-02-13T06:43:48.730Z,50.876694
2023-02-13T06:44:48.669Z,50.876965
2023-02-13T06:45:48.657Z,50.877190
2023-02-13T06:46:48.704Z,50.877296
2023-02-13T06:47:48.675Z,50.877262
2023-02-13T06:48:48.624Z,50.877308
2023-02-13T06:49:48.627Z,50.877369
2023-02-13T06:50:48.641Z,50.877323
2023-02-13T06:51:48.602Z,50.877392
2023-02-13T06:52:48.596Z,50.877174
2023-02-13T06:53:48.574Z,50.877171
2023-02-13T06:54:48.622Z,50.877197
2023-02-13T06:55:48.603Z,50.877151
2023-02-13T06:56:48.584Z,50.877171
2023-02-13T06:57:48.567Z,50.877178
2023-02-13T06:58:48.544Z,50.877220
2023-02-13T06:59:48.514Z,50.877243
2023-02-13T07:00:48.537Z,50.877239
2023-02-13T07:01:48.508Z,50.877258
2023-02-13T07:02:48.583Z,50.877251
2023-02-13T07:03:48.506Z,50.877220
2023-02-13T07:04:48.498Z,50.877262
2023-02-13T07:05:48.459Z,50.877209
2023-02-13T07:06:48.457Z,50.877247
2023-02-13T07:07:48.465Z,50.877262
2023-02-13T07:08:48.440Z,50.877228
2023-02-13T07:09:48.441Z,50.877239
2023-02-13T07:10:48.433Z,50.877235
2023-02-13T07:11:48.435Z,50.877247
2023-02-13T07:13:03.639Z,50.877251
2023-02-13T07:13:50.384Z,50.877216
2023-02-13T07:14:48.393Z,50.877232
2023-02-13T07:15:48.452Z,50.877232
2023-02-13T07:16:48.383Z,50.877251
2023-02-13T07:17:48.350Z,50.877243
2023-02-13T07:18:48.329Z,50.877224
2023-02-13T07:19:48.333Z,50.877239
2023-02-13T07:20:48.325Z,50.877247
2023-02-13T07:21:48.355Z,50.877220
2023-02-13T07:22:48.309Z,50.877243
2023-02-13T07:23:48.341Z,50.877319
2023-02-13T07:24:48.274Z,50.877239
2023-02-13T07:25:48.305Z,50.877197
2023-02-13T07:26:48.314Z,50.877220
2023-02-13T07:27:48.252Z,50.877277
2023-02-13T07:28:49.131Z,50.877316
2023-02-13T07:29:48.255Z,50.877247
2023-02-13T07:30:48.307Z,50.877201
2023-02-13T07:31:48.264Z,50.877136
2023-02-13T07:32:48.270Z,50.877190
2023-02-13T07:33:48.257Z,50.877216
2023-02-13T07:35:00.902Z,50.877258
2023-02-13T07:35:50.330Z,50.877254
2023-02-13T07:36:48.237Z,50.877186
2023-02-13T07:37:48.154Z,50.877151
2023-02-13T07:38:48.252Z,50.877155
2023-02-13T07:39:48.152Z,50.877155
2023-02-13T07:40:48.207Z,50.877182
2023-02-13T07:41:48.130Z,50.877201
2023-02-13T07:42:48.115Z,50.877190
2023-02-13T07:43:49.099Z,50.877197
2023-02-13T07:44:48.205Z,50.877186
2023-02-13T07:45:48.087Z,50.877197
2023-02-13T07:46:48.182Z,50.877193
2023-02-13T07:47:48.076Z,50.877216
2023-02-13T07:48:48.132Z,50.877209
2023-02-13T07:49:48.033Z,50.877205
2023-02-13T07:50:48.074Z,50.877174
2023-02-13T07:51:48.143Z,50.877186
2023-02-13T07:52:48.014Z,50.877205
2023-02-13T07:53:47.983Z,50.877205
2023-02-13T07:54:48.293Z,50.877205
2023-02-13T07:55:47.978Z,50.877205
2023-02-13T07:56:47.960Z,50.877224
2023-02-13T07:57:47.968Z,50.877228
2023-02-13T07:58:47.963Z,50.877224
2023-02-13T07:59:47.957Z,50.877220
2023-02-13T08:00:47.959Z,50.877190
2023-02-13T08:01:47.968Z,50.877171
2023-02-13T08:02:48.069Z,50.877186
2023-02-13T08:03:47.954Z,50.877174
2023-02-13T08:04:47.884Z,50.877167
2023-02-13T08:05:47.933Z,50.877174
2023-02-13T08:06:47.857Z,50.877186
2023-02-13T08:07:47.877Z,50.877174
2023-02-13T08:08:47.867Z,50.877186
2023-02-13T08:09:47.845Z,50.877190
2023-02-13T08:10:47.810Z,50.877178
2023-02-13T08:11:47.864Z,50.877174
2023-02-13T08:12:47.829Z,50.877167
2023-02-13T08:13:47.792Z,50.877167
2023-02-13T08:14:47.785Z,50.877182
2023-02-13T08:15:47.777Z,50.877155
2023-02-13T08:16:47.798Z,50.877171
2023-02-13T08:17:47.773Z,50.877174
2023-02-13T08:18:47.771Z,50.877167
2023-02-13T08:19:47.773Z,50.877190
2023-02-13T08:20:47.838Z,50.877209
2023-02-13T08:21:47.751Z,50.877216
2023-02-13T08:22:47.710Z,50.877205
2023-02-13T08:23:47.740Z,50.877205
2023-02-13T08:24:48.706Z,50.877186
2023-02-13T08:25:47.878Z,50.877193
2023-02-13T08:26:47.672Z,50.877201
2023-02-13T08:27:47.650Z,50.877186
2023-02-13T08:28:47.834Z,50.877186
2023-02-13T08:29:47.662Z,50.877193
2023-02-13T08:30:47.681Z,50.877186
2023-02-13T08:31:47.733Z,50.877213
2023-02-13T08:32:54.147Z,50.877213
2023-02-13T08:33:48.699Z,50.877220
2023-02-13T08:34:47.604Z,50.877213
2023-02-13T08:35:47.675Z,50.877197
2023-02-13T08:36:47.578Z,50.877190
2023-02-13T08:37:47.750Z,50.877174
2023-02-13T08:38:48.537Z,50.877205
2023-02-13T08:39:47.552Z,50.877201
2023-02-13T08:40:47.531Z,50.877213
2023-02-13T08:41:47.508Z,50.877174
2023-02-13T08:42:48.497Z,50.877174
2023-02-13T08:43:47.497Z,50.877186
2023-02-13T08:44:47.560Z,50.877163
2023-02-13T08:45:47.511Z,50.877136
2023-02-13T08:46:47.454Z,50.877167
2023-02-13T08:47:47.480Z,50.877201
2023-02-13T08:48:47.637Z,50.877201
2023-02-13T08:49:47.462Z,50.877201
2023-02-13T08:50:47.486Z,50.877136
2023-02-13T08:51:47.419Z,50.877178
2023-02-13T08:52:47.400Z,50.877186
2023-02-13T08:53:47.481Z,50.877220
2023-02-13T08:54:47.399Z,50.877216
2023-02-13T08:55:47.370Z,50.877171
2023-02-13T08:56:47.448Z,50.877197
2023-02-13T08:57:47.362Z,50.877201
2023-02-13T08:58:47.362Z,50.877190
2023-02-13T08:59:47.396Z,50.877174
2023-02-13T09:00:47.341Z,50.877155
2023-02-13T09:01:47.316Z,50.877178
2023-02-13T09:02:47.314Z,50.877205
2023-02-13T09:03:47.287Z,50.877197
2023-02-13T09:04:47.299Z,50.877136
2023-02-13T09:05:47.258Z,50.877151
2023-02-13T09:06:47.297Z,50.877171
2023-02-13T09:07:47.256Z,50.877167
2023-02-13T09:08:47.322Z,50.877163
2023-02-13T09:09:47.254Z,50.877155
2023-02-13T09:10:47.212Z,50.877163
2023-02-13T09:11:47.212Z,50.877167
2023-02-13T09:12:47.216Z,50.877174
2023-02-13T09:13:48.060Z,50.877178
2023-02-13T09:14:47.265Z,50.877163
2023-02-13T09:15:47.169Z,50.877186
2023-02-13T09:16:47.318Z,50.877190
2023-02-13T09:17:47.156Z,50.877193
2023-02-13T09:18:47.150Z,50.877190
2023-02-13T09:19:47.184Z,50.877174
2023-02-13T09:20:47.119Z,50.877167
2023-02-13T09:21:47.104Z,50.877182
2023-02-13T09:22:47.172Z,50.877174
2023-02-13T09:23:47.095Z,50.877178
2023-02-13T09:24:47.120Z,50.877197
2023-02-13T09:25:47.065Z,50.877205
2023-02-13T09:26:47.082Z,50.877235
2023-02-13T09:27:47.061Z,50.877213
2023-02-13T09:28:47.206Z,50.877213
2023-02-13T09:29:47.082Z,50.877178
2023-02-13T09:30:47.054Z,50.877220
2023-02-13T09:31:47.189Z,50.877224
2023-02-13T09:32:47.009Z,50.877205
2023-02-13T09:33:47.011Z,50.877235
2023-02-13T09:34:47.005Z,50.877209
2023-02-13T09:35:46.986Z,50.877239
2023-02-13T09:36:46.960Z,50.877190
2023-02-13T09:37:46.986Z,50.877216
2023-02-13T09:38:47.006Z,50.877197
2023-02-13T09:39:46.957Z,50.877216
2023-02-13T09:40:46.935Z,50.877224
2023-02-13T09:41:46.912Z,50.877205
2023-02-13T09:42:47.922Z,50.877224
2023-02-13T09:43:46.934Z,50.877224
2023-02-13T09:44:46.926Z,50.877182
2023-02-13T09:45:46.912Z,50.877209
2023-02-13T09:46:46.941Z,50.877205
2023-02-13T09:47:46.857Z,50.877205
2023-02-13T09:48:46.850Z,50.877232
2023-02-13T09:49:46.870Z,50.877224
2023-02-13T09:50:46.827Z,50.877224
2023-02-13T09:51:46.847Z,50.877190
2023-02-13T09:52:46.807Z,50.877216
2023-02-13T09:53:47.828Z,50.877239
2023-02-13T09:54:46.833Z,50.877201
2023-02-13T09:55:46.777Z,50.877193
2023-02-13T09:56:46.782Z,50.877209
2023-02-13T09:57:46.796Z,50.877232
2023-02-13T09:58:46.753Z,50.877174
2023-02-13T09:59:46.739Z,50.877243
2023-02-13T10:00:49.511Z,50.877213
2023-02-13T10:01:46.761Z,50.877182
2023-02-13T10:02:46.728Z,50.877193
2023-02-13T10:03:46.703Z,50.877197
2023-02-13T10:04:46.740Z,50.877094
2023-02-13T10:05:46.689Z,50.877213
2023-02-13T10:06:46.707Z,50.877201
2023-02-13T10:07:46.672Z,50.877205
2023-02-13T10:08:46.662Z,50.877155
2023-02-13T10:09:46.658Z,50.877167
2023-02-13T10:10:46.633Z,50.877220
2023-02-13T10:11:46.617Z,50.877220
2023-02-13T10:12:46.630Z,50.877228
2023-02-13T10:13:46.628Z,50.877182
2023-02-13T10:14:46.605Z,50.877167
2023-02-13T10:15:46.618Z,50.877182
2023-02-13T10:16:46.584Z,50.877167
2023-02-13T10:17:46.564Z,50.877186
2023-02-13T10:18:46.592Z,50.877209
2023-02-13T10:19:46.572Z,50.877193
2023-02-13T10:20:46.567Z,50.877132
2023-02-13T10:21:46.534Z,50.877167
2023-02-13T10:22:46.525Z,50.877281
2023-02-13T10:23:46.526Z,50.877224
2023-02-13T10:24:46.580Z,50.877224
2023-02-13T10:25:46.515Z,50.877193
2023-02-13T10:26:46.497Z,50.877312
2023-02-13T10:27:46.481Z,50.877262
2023-02-13T10:28:46.545Z,50.877258
2023-02-13T10:29:46.446Z,50.877251
2023-02-13T10:30:46.539Z,50.877239
2023-02-13T10:31:46.524Z,50.877274
2023-02-13T10:32:46.421Z,50.877300
2023-02-13T10:33:46.420Z,50.877327
2023-02-13T10:34:46.411Z,50.877293
2023-02-13T10:35:46.426Z,50.877254
2023-02-13T10:36:46.386Z,50.877247
2023-02-13T10:37:46.372Z,50.877243
2023-02-13T10:38:46.377Z,50.877228
2023-02-13T10:39:46.348Z,50.877205
2023-02-13T10:40:46.358Z,50.877190
2023-02-13T10:41:46.343Z,50.877213
2023-02-13T10:42:46.357Z,50.877216
2023-02-13T10:43:46.314Z,50.877213
2023-02-13T10:44:46.310Z,50.877213
2023-02-13T10:45:46.326Z,50.877235
2023-02-13T10:46:46.332Z,50.877220
2023-02-13T10:47:46.308Z,50.877228
2023-02-13T10:48:46.278Z,50.877201
2023-02-13T10:49:46.270Z,50.877228
2023-02-13T10:50:46.249Z,50.877216
2023-02-13T10:51:46.245Z,50.877213
2023-02-13T10:52:46.240Z,50.877216
2023-02-13T10:53:46.260Z,50.877224
2023-02-13T10:54:46.225Z,50.877224
2023-02-13T10:55:46.209Z,50.877228
2023-02-13T10:56:46.191Z,50.877239
2023-02-13T10:57:46.206Z,50.877239
2023-02-13T10:58:46.166Z,50.877235
2023-02-13T10:59:46.172Z,50.877220
2023-02-13T11:00:46.155Z,50.877213
2023-02-13T11:01:46.199Z,50.877224
2023-02-13T11:02:46.147Z,50.877239
2023-02-13T11:03:46.119Z,50.877224
2023-02-13T11:04:46.178Z,50.877224
2023-02-13T11:05:46.094Z,50.877201
2023-02-13T11:06:46.107Z,50.877205
2023-02-13T11:07:46.073Z,50.877213
2023-02-13T11:08:46.182Z,50.877205
2023-02-13T11:09:46.068Z,50.877205
2023-02-13T11:10:46.046Z,50.877220
2023-02-13T11:11:46.057Z,50.877228
2023-02-13T11:12:46.027Z,50.877232
2023-02-13T11:13:46.023Z,50.877228
2023-02-13T11:14:46.013Z,50.877239
2023-02-13T11:15:46.048Z,50.877243
2023-02-13T11:16:45.992Z,50.877201
2023-02-13T11:17:45.990Z,50.877258
2023-02-13T11:18:45.971Z,50.877232
2023-02-13T11:19:45.951Z,50.877197
2023-02-13T11:20:45.945Z,50.877213
2023-02-13T11:21:45.936Z,50.877254
2023-02-13T11:22:45.962Z,50.877274
2023-02-13T11:23:45.957Z,50.877254
2023-02-13T11:24:45.897Z,50.877254